CPE2 weather

Ajax (Pickering General Hospital) Heliport
Ajax, Ontario, Canada

Public forecast

Using degrees Celsius for public forecast. Weather courtesy of forecast.io.

Closest aviation weather report (METAR) to Ajax (Pickering General Hospital) Heliport

Closest report is Toronto/Oshawa Executive Airport, 7.4 nm (13.8 km) NE. Retrieved 2020/05/30 11:00 UTC (29 minutes ago):

CYOO 301100Z AUTO 20004KT 9SM BKN090 OVC110 12/12 A2996 RMK SLP148

Closest aviation forecast (TAF) to Ajax (Pickering General Hospital) Heliport

Closest forecast is Toronto/Oshawa Executive Airport, 7.4 nm (13.8 km) NE. Retrieved 2020/05/30 08:00 UTC (3 hours ago):

TAF CYOO 300738Z 3008/3020 25010KT P6SM BKN015 TEMPO 3008/3017 SCT015 FM301700 28012G22KT P6SM BKN030 BECMG 3018/3020 31015G25KT RMK FCST BASED ON AUTO OBS NXT FCST BY 301400Z